createdAt,value
2023-04-27T00:00:38.076Z,22.20
2023-04-27T00:02:39.805Z,22.20
2023-04-27T00:04:41.728Z,22.20
2023-04-27T00:06:43.511Z,22.20
2023-04-27T00:08:45.093Z,22.20
2023-04-27T00:10:46.615Z,22.20
2023-04-27T00:12:48.209Z,22.20
2023-04-27T00:14:49.769Z,22.20
2023-04-27T00:16:51.415Z,22.20
2023-04-27T00:18:53.020Z,22.20
2023-04-27T00:20:54.592Z,22.20
2023-04-27T00:22:56.682Z,22.20
2023-04-27T00:24:58.271Z,22.20
2023-04-27T00:26:59.883Z,22.20
2023-04-27T00:29:01.605Z,22.10
2023-04-27T00:31:04.562Z,22.10
2023-04-27T00:33:06.272Z,22.10
2023-04-27T00:35:08.246Z,22.10
2023-04-27T00:37:10.102Z,22.10
2023-04-27T00:39:12.358Z,22.10
2023-04-27T00:41:14.052Z,22.20
2023-04-27T00:43:15.603Z,22.10
2023-04-27T00:45:17.242Z,22.10
2023-04-27T00:47:19.133Z,22.10
2023-04-27T00:49:21.430Z,22.10
2023-04-27T00:51:27.662Z,22.10
2023-04-27T00:53:29.388Z,22.10
2023-04-27T00:55:30.905Z,22.10
2023-04-27T00:57:33.545Z,22.10
2023-04-27T00:59:35.284Z,22.10
2023-04-27T01:01:37.025Z,22.10
2023-04-27T01:03:38.819Z,22.10
2023-04-27T01:05:41.653Z,22.10
2023-04-27T01:07:43.732Z,22.10
2023-04-27T01:09:46.649Z,22.10
2023-04-27T01:11:48.244Z,22.10
2023-04-27T01:13:49.829Z,22.10
2023-04-27T01:15:51.357Z,22.10
2023-04-27T01:17:59.511Z,22.10
2023-04-27T01:20:02.413Z,22.10
2023-04-27T01:22:03.993Z,22.10
2023-04-27T01:24:06.315Z,22.00
2023-04-27T01:26:07.952Z,22.00
2023-04-27T01:28:09.578Z,22.00
2023-04-27T01:30:11.216Z,22.00
2023-04-27T01:32:12.842Z,22.00
2023-04-27T01:34:14.424Z,22.00
2023-04-27T01:36:16.077Z,22.00
2023-04-27T01:38:17.917Z,22.00
2023-04-27T01:40:19.484Z,22.00
2023-04-27T01:42:21.060Z,22.00
2023-04-27T01:44:23.973Z,22.00
2023-04-27T01:46:25.589Z,22.00
2023-04-27T01:48:27.284Z,22.00
2023-04-27T01:50:28.932Z,22.00
2023-04-27T01:52:30.586Z,22.00
2023-04-27T01:54:32.146Z,22.00
2023-04-27T01:56:33.785Z,21.90
2023-04-27T01:58:35.379Z,21.90
2023-04-27T02:00:36.878Z,22.00
2023-04-27T02:02:38.559Z,22.00
2023-04-27T02:04:40.450Z,22.00
2023-04-27T02:06:42.254Z,22.00
2023-04-27T02:08:43.842Z,21.90
2023-04-27T02:10:45.624Z,22.00
2023-04-27T02:12:47.241Z,21.90
2023-04-27T02:14:48.803Z,21.90
2023-04-27T02:16:50.513Z,21.90
2023-04-27T02:18:53.842Z,21.90
2023-04-27T02:20:55.374Z,21.90
2023-04-27T02:22:57.208Z,21.90
2023-04-27T02:24:59.592Z,21.90
2023-04-27T02:27:01.790Z,21.90
2023-04-27T02:29:03.919Z,21.90
2023-04-27T02:31:06.479Z,21.90
2023-04-27T02:33:08.287Z,21.90
2023-04-27T02:35:10.248Z,21.90
2023-04-27T02:37:12.020Z,21.90
2023-04-27T02:39:13.724Z,21.90
2023-04-27T02:41:15.484Z,21.90
2023-04-27T02:43:16.984Z,21.90
2023-04-27T02:45:18.631Z,21.90
2023-04-27T02:47:20.342Z,21.80
2023-04-27T02:49:22.003Z,21.80
2023-04-27T02:51:23.861Z,21.80
2023-04-27T02:53:25.605Z,21.80
2023-04-27T02:55:27.560Z,21.80
2023-04-27T02:57:29.219Z,21.80
2023-04-27T02:59:30.800Z,21.80
2023-04-27T03:01:32.546Z,21.80
2023-04-27T03:03:34.396Z,21.80
2023-04-27T03:05:37.193Z,21.80
2023-04-27T03:07:38.761Z,21.80
2023-04-27T03:09:40.400Z,21.80
2023-04-27T03:11:42.017Z,21.80
2023-04-27T03:13:43.688Z,21.80
2023-04-27T03:15:45.693Z,21.80
2023-04-27T03:17:47.229Z,21.80
2023-04-27T03:19:49.246Z,21.80
2023-04-27T03:21:51.021Z,21.80
2023-04-27T03:23:52.803Z,21.80
2023-04-27T03:25:54.337Z,21.80
2023-04-27T03:27:56.371Z,21.80
2023-04-27T03:29:57.948Z,21.70
2023-04-27T03:31:59.525Z,21.80
2023-04-27T03:34:01.591Z,21.80
2023-04-27T03:36:04.443Z,21.80
2023-04-27T03:38:06.410Z,21.80
2023-04-27T03:40:08.334Z,21.80
2023-04-27T03:42:09.929Z,21.90
2023-04-27T03:44:11.493Z,21.90
2023-04-27T03:46:13.067Z,21.90
2023-04-27T03:48:15.144Z,22.00
2023-04-27T03:50:16.812Z,22.00
2023-04-27T03:52:18.634Z,22.00
2023-04-27T03:54:21.133Z,22.00
2023-04-27T03:56:22.750Z,22.00
2023-04-27T03:58:24.352Z,22.10
2023-04-27T04:00:26.135Z,22.00
2023-04-27T04:02:27.818Z,22.00
2023-04-27T04:04:29.696Z,22.00
2023-04-27T04:06:31.678Z,21.90
2023-04-27T04:08:34.134Z,22.00
2023-04-27T04:10:35.648Z,22.00
2023-04-27T04:12:37.333Z,22.00
2023-04-27T04:14:38.972Z,22.00
2023-04-27T04:16:40.625Z,22.00
2023-04-27T04:18:42.191Z,22.00
2023-04-27T04:20:43.780Z,22.00
2023-04-27T04:22:45.474Z,22.00
2023-04-27T04:24:47.304Z,22.10
2023-04-27T04:26:48.864Z,22.10
2023-04-27T04:28:50.402Z,22.10
2023-04-27T04:30:52.341Z,22.10
2023-04-27T04:32:55.310Z,22.10
2023-04-27T04:34:57.674Z,22.10
2023-04-27T04:36:59.273Z,22.10
2023-04-27T04:39:00.844Z,22.00
2023-04-27T04:41:02.456Z,22.00
2023-04-27T04:43:04.261Z,22.10
2023-04-27T04:45:07.040Z,22.00
2023-04-27T04:47:10.068Z,22.00
2023-04-27T04:49:12.040Z,22.00
2023-04-27T04:51:13.850Z,22.00
2023-04-27T04:53:15.450Z,22.00
2023-04-27T04:55:17.216Z,22.10
2023-04-27T04:57:18.933Z,22.10
2023-04-27T04:59:20.504Z,22.10
2023-04-27T05:01:22.161Z,22.10
2023-04-27T05:03:23.902Z,22.10
2023-04-27T05:05:25.957Z,22.10
2023-04-27T05:07:27.543Z,22.10
2023-04-27T05:09:29.140Z,22.10
2023-04-27T05:11:30.705Z,22.10
2023-04-27T05:13:32.251Z,22.10
2023-04-27T05:15:33.888Z,22.10
2023-04-27T05:17:35.574Z,22.10
2023-04-27T05:19:37.185Z,22.10
2023-04-27T05:21:38.793Z,22.10
2023-04-27T05:23:40.332Z,22.10
2023-04-27T05:25:42.945Z,22.10
2023-04-27T05:27:44.524Z,22.10
2023-04-27T05:29:46.266Z,22.10
2023-04-27T05:31:47.851Z,22.10
2023-04-27T05:33:49.441Z,22.10
2023-04-27T05:35:50.964Z,22.10
2023-04-27T05:37:52.602Z,22.10
2023-04-27T05:39:54.140Z,22.10
2023-04-27T05:41:56.209Z,22.10
2023-04-27T05:43:57.791Z,22.10
2023-04-27T05:45:59.407Z,22.10
2023-04-27T05:48:01.025Z,22.10
2023-04-27T05:50:03.697Z,22.10
2023-04-27T05:52:05.282Z,22.10
2023-04-27T05:54:07.969Z,22.10
2023-04-27T05:56:11.717Z,22.10
2023-04-27T05:58:13.310Z,22.10
2023-04-27T06:00:15.312Z,22.10
2023-04-27T06:02:17.154Z,22.10
2023-04-27T06:04:18.912Z,22.10
2023-04-27T06:06:21.119Z,22.20
2023-04-27T06:08:22.976Z,22.20
2023-04-27T06:10:24.484Z,22.10
2023-04-27T06:12:26.239Z,22.10
2023-04-27T06:14:28.067Z,22.10
2023-04-27T06:16:29.840Z,22.10
2023-04-27T06:18:31.685Z,22.10
2023-04-27T06:20:33.222Z,22.10
2023-04-27T06:22:36.800Z,22.10
2023-04-27T06:24:38.473Z,22.10
2023-04-27T06:26:40.066Z,22.10
2023-04-27T06:28:41.585Z,22.10
2023-04-27T06:30:43.115Z,22.10
2023-04-27T06:32:44.722Z,22.10
2023-04-27T06:34:47.336Z,22.10
2023-04-27T06:36:48.915Z,22.10
2023-04-27T06:38:50.512Z,22.10
2023-04-27T06:40:53.033Z,22.10
2023-04-27T06:42:54.671Z,22.10
2023-04-27T06:44:56.497Z,22.10
2023-04-27T06:46:58.102Z,22.10
2023-04-27T06:48:59.623Z,22.10
2023-04-27T06:51:01.295Z,22.10
2023-04-27T06:53:02.852Z,22.10
2023-04-27T06:55:04.652Z,22.10
2023-04-27T06:57:06.645Z,22.10
2023-04-27T06:59:08.465Z,22.10
2023-04-27T07:01:10.026Z,22.10
2023-04-27T07:03:11.636Z,22.10
2023-04-27T07:05:13.357Z,22.10
2023-04-27T07:07:15.037Z,22.10
2023-04-27T07:09:27.119Z,22.10
2023-04-27T07:11:29.201Z,22.10
2023-04-27T07:13:30.744Z,22.10
2023-04-27T07:15:32.313Z,22.10
2023-04-27T07:17:34.032Z,22.10
2023-04-27T07:19:36.653Z,22.10
2023-04-27T07:21:38.292Z,22.10
2023-04-27T07:23:43.023Z,22.10
2023-04-27T07:25:45.481Z,22.10
2023-04-27T07:27:47.121Z,22.10
2023-04-27T07:29:48.717Z,22.10
2023-04-27T07:31:52.217Z,22.10
2023-04-27T07:33:55.047Z,22.20
2023-04-27T07:35:56.744Z,22.20
2023-04-27T07:38:00.082Z,22.20
2023-04-27T07:40:02.807Z,22.20
2023-04-27T07:42:04.441Z,22.20
2023-04-27T07:44:06.033Z,22.10
2023-04-27T07:46:07.714Z,22.10
2023-04-27T07:48:09.738Z,22.20
2023-04-27T07:50:11.403Z,22.10
2023-04-27T07:52:12.971Z,22.10
2023-04-27T07:54:14.666Z,22.10
2023-04-27T07:56:16.262Z,22.20
2023-04-27T07:58:19.736Z,22.20
2023-04-27T08:00:22.343Z,22.20
2023-04-27T08:02:24.105Z,22.20
2023-04-27T08:04:25.973Z,22.20
2023-04-27T08:06:28.902Z,22.20
2023-04-27T08:08:31.744Z,22.20
2023-04-27T08:10:33.332Z,22.20
2023-04-27T08:12:34.963Z,22.20
2023-04-27T08:14:36.567Z,22.20
2023-04-27T08:16:38.152Z,22.20
2023-04-27T08:18:39.719Z,22.20
2023-04-27T08:20:41.299Z,22.20
2023-04-27T08:22:42.952Z,22.20
2023-04-27T08:24:44.694Z,22.20
2023-04-27T08:26:46.270Z,22.20
2023-04-27T08:28:49.171Z,22.20
2023-04-27T08:30:51.727Z,22.20
2023-04-27T08:32:54.922Z,22.20
2023-04-27T08:34:56.811Z,22.20
2023-04-27T08:36:58.428Z,22.20
2023-04-27T08:38:59.991Z,22.20
2023-04-27T08:41:10.917Z,22.20
2023-04-27T08:43:22.232Z,22.20
2023-04-27T08:45:24.395Z,22.30
2023-04-27T08:47:35.025Z,22.30
2023-04-27T08:49:43.875Z,22.30
2023-04-27T08:51:45.494Z,22.30
2023-04-27T08:53:51.413Z,22.30
2023-04-27T08:55:53.027Z,22.30
2023-04-27T08:57:56.115Z,22.30
2023-04-27T08:59:59.084Z,22.30
2023-04-27T09:02:00.818Z,22.30
2023-04-27T09:04:02.823Z,22.30
2023-04-27T09:06:06.165Z,22.40
2023-04-27T09:08:08.152Z,22.40
2023-04-27T09:10:09.991Z,22.40
2023-04-27T09:12:15.839Z,22.40
2023-04-27T09:14:17.427Z,22.40
2023-04-27T09:16:22.936Z,22.40
2023-04-27T09:18:24.492Z,22.40
2023-04-27T09:20:27.270Z,22.40
2023-04-27T09:22:29.001Z,22.50
2023-04-27T09:24:30.779Z,22.50
2023-04-27T09:26:32.351Z,22.50
2023-04-27T09:28:34.503Z,22.50
2023-04-27T09:30:37.754Z,22.50
2023-04-27T09:32:39.337Z,22.50
2023-04-27T09:34:41.190Z,22.50
2023-04-27T09:36:43.264Z,22.50
2023-04-27T09:38:45.021Z,22.50
2023-04-27T09:40:46.981Z,22.50
2023-04-27T09:42:48.587Z,22.50
2023-04-27T09:44:52.358Z,22.50
2023-04-27T09:46:55.534Z,22.50
2023-04-27T09:48:57.520Z,22.50
2023-04-27T09:50:59.359Z,22.50
2023-04-27T09:53:00.965Z,22.50
2023-04-27T09:55:03.384Z,22.50
2023-04-27T09:57:10.911Z,22.50
2023-04-27T09:59:18.083Z,22.50
2023-04-27T10:01:38.007Z,22.50
2023-04-27T10:03:45.957Z,22.50
2023-04-27T10:06:05.201Z,22.50
2023-04-27T10:08:06.859Z,22.60
2023-04-27T10:10:15.818Z,22.60
2023-04-27T10:12:17.356Z,22.50
2023-04-27T10:14:20.414Z,22.50
2023-04-27T10:16:22.419Z,22.50
2023-04-27T10:18:33.486Z,22.50
2023-04-27T10:20:36.562Z,22.50
2023-04-27T10:22:49.977Z,22.60
2023-04-27T10:24:51.955Z,22.50
2023-04-27T10:27:00.279Z,22.50
2023-04-27T10:29:07.104Z,22.50
2023-04-27T10:31:12.059Z,22.60
2023-04-27T10:33:16.607Z,22.60
2023-04-27T10:35:18.834Z,22.60
2023-04-27T10:37:22.033Z,22.60
2023-04-27T10:39:35.944Z,22.60
2023-04-27T10:41:49.341Z,22.70
2023-04-27T10:43:51.344Z,22.70
2023-04-27T10:45:53.208Z,22.70
2023-04-27T10:47:58.155Z,22.70
2023-04-27T10:50:00.209Z,22.80
2023-04-27T10:52:04.811Z,22.80
2023-04-27T10:54:06.581Z,22.80
2023-04-27T10:56:08.243Z,22.80
2023-04-27T10:58:09.821Z,22.80
2023-04-27T11:00:16.257Z,22.80
2023-04-27T11:02:24.633Z,22.80
2023-04-27T11:04:40.237Z,22.80
2023-04-27T11:06:42.972Z,22.80
2023-04-27T11:08:45.307Z,22.90
2023-04-27T11:10:49.819Z,22.90
2023-04-27T11:12:51.503Z,22.90
2023-04-27T11:14:58.917Z,22.90
2023-04-27T11:17:00.664Z,22.90
2023-04-27T11:19:06.632Z,22.90
2023-04-27T11:21:09.437Z,22.90
2023-04-27T11:23:11.198Z,22.90
2023-04-27T11:25:12.798Z,22.90
2023-04-27T11:27:14.381Z,22.90
2023-04-27T11:29:16.431Z,22.90
2023-04-27T11:31:18.880Z,22.90
2023-04-27T11:33:20.562Z,22.90
2023-04-27T11:35:34.451Z,22.90
2023-04-27T11:37:36.250Z,22.90
2023-04-27T11:39:38.739Z,22.90
2023-04-27T11:41:45.728Z,22.90
2023-04-27T11:43:49.206Z,23.00
2023-04-27T11:45:51.673Z,23.00
2023-04-27T11:47:53.260Z,23.00
2023-04-27T11:49:55.669Z,23.00
2023-04-27T11:51:57.567Z,22.90
2023-04-27T11:54:06.097Z,23.00
2023-04-27T11:56:10.480Z,22.90
2023-04-27T11:58:15.945Z,22.90
2023-04-27T12:00:18.188Z,22.90
2023-04-27T12:02:21.988Z,22.90
2023-04-27T12:04:24.041Z,22.90
2023-04-27T12:06:32.651Z,22.90
2023-04-27T12:08:34.920Z,22.90
2023-04-27T12:10:36.581Z,22.90
2023-04-27T12:12:38.713Z,22.90
2023-04-27T12:14:40.589Z,22.90
2023-04-27T12:16:42.189Z,22.90
2023-04-27T12:18:43.883Z,22.90
2023-04-27T12:20:45.732Z,23.00
2023-04-27T12:22:47.573Z,23.00
2023-04-27T12:24:49.323Z,22.90
2023-04-27T12:26:51.741Z,22.90
2023-04-27T12:28:53.299Z,23.00
2023-04-27T12:30:55.047Z,23.00
2023-04-27T12:32:59.442Z,23.00
2023-04-27T12:35:01.053Z,22.90
2023-04-27T12:37:02.677Z,23.00
2023-04-27T12:39:20.422Z,23.00
2023-04-27T12:41:23.230Z,23.00
2023-04-27T12:43:24.814Z,23.00
2023-04-27T12:45:26.343Z,23.10
2023-04-27T12:47:49.854Z,23.00
2023-04-27T12:49:49.398Z,23.10
2023-04-27T12:51:52.741Z,23.10
2023-04-27T12:53:54.507Z,23.10
2023-04-27T12:55:56.206Z,23.10
2023-04-27T12:57:58.227Z,23.10
2023-04-27T13:00:01.708Z,23.10
2023-04-27T13:02:04.126Z,23.10
2023-04-27T13:04:06.953Z,23.10
2023-04-27T13:06:08.696Z,23.10
2023-04-27T13:08:10.584Z,23.10
2023-04-27T13:10:12.374Z,23.10
2023-04-27T13:12:14.060Z,23.10
2023-04-27T13:14:15.836Z,23.10
2023-04-27T13:16:19.210Z,23.10
2023-04-27T13:18:21.058Z,23.10
2023-04-27T13:20:22.718Z,23.10
2023-04-27T13:22:24.232Z,23.10
2023-04-27T13:24:25.975Z,23.10
2023-04-27T13:26:27.588Z,23.10
2023-04-27T13:28:29.115Z,23.10
2023-04-27T13:30:30.648Z,23.10
2023-04-27T13:32:32.284Z,23.10
2023-04-27T13:34:34.203Z,23.20
2023-04-27T13:36:35.727Z,23.20
2023-04-27T13:38:37.306Z,23.20
2023-04-27T13:40:38.897Z,23.20
2023-04-27T13:42:40.717Z,23.20
2023-04-27T13:44:42.272Z,23.20
2023-04-27T13:46:43.837Z,23.20
2023-04-27T13:48:45.461Z,23.20
2023-04-27T13:50:47.284Z,23.20
2023-04-27T13:52:48.905Z,23.20
2023-04-27T13:54:50.527Z,23.30
2023-04-27T13:56:52.182Z,23.20
2023-04-27T13:58:53.721Z,23.30
2023-04-27T14:00:56.052Z,23.30
2023-04-27T14:02:57.792Z,23.30
2023-04-27T14:04:59.574Z,23.30
2023-04-27T14:07:01.315Z,23.30
2023-04-27T14:09:02.934Z,23.30
2023-04-27T14:11:05.776Z,23.30
2023-04-27T14:13:07.414Z,23.30
2023-04-27T14:15:09.095Z,23.30
2023-04-27T14:17:10.691Z,23.30
2023-04-27T14:19:15.612Z,23.30
2023-04-27T14:21:17.332Z,23.30
2023-04-27T14:23:18.912Z,23.30
2023-04-27T14:25:20.479Z,23.30
2023-04-27T14:27:22.036Z,23.20
2023-04-27T14:29:23.763Z,22.80
2023-04-27T14:31:26.362Z,22.90
2023-04-27T14:33:27.965Z,23.00
2023-04-27T14:35:29.750Z,23.10
2023-04-27T14:37:31.658Z,23.20
2023-04-27T14:39:34.858Z,23.20
2023-04-27T14:41:37.370Z,23.20
2023-04-27T14:43:38.925Z,23.20
2023-04-27T14:45:51.174Z,23.30
2023-04-27T14:47:55.749Z,23.20
2023-04-27T14:49:57.349Z,23.20
2023-04-27T14:52:00.462Z,23.30
2023-04-27T14:54:03.775Z,23.30
2023-04-27T14:56:05.495Z,23.30
2023-04-27T14:58:07.034Z,23.30
2023-04-27T15:00:14.457Z,23.30
2023-04-27T15:02:16.080Z,23.30
2023-04-27T15:04:17.935Z,23.30
2023-04-27T15:06:19.941Z,23.30
2023-04-27T15:08:21.732Z,23.30
2023-04-27T15:10:23.257Z,23.30
2023-04-27T15:12:24.843Z,23.30
2023-04-27T15:14:26.683Z,23.30
2023-04-27T15:16:28.337Z,23.30
2023-04-27T15:18:30.697Z,23.30
2023-04-27T15:20:32.485Z,23.30
2023-04-27T15:22:34.111Z,23.30
2023-04-27T15:24:36.181Z,23.30
2023-04-27T15:26:37.757Z,23.30
2023-04-27T15:28:39.308Z,23.30
2023-04-27T15:30:41.497Z,23.30
2023-04-27T15:32:43.153Z,23.30
2023-04-27T15:34:45.920Z,23.30
2023-04-27T15:36:47.522Z,23.40
2023-04-27T15:38:49.974Z,23.30
2023-04-27T15:40:51.517Z,23.30
2023-04-27T15:42:53.172Z,23.30
2023-04-27T15:44:54.744Z,23.30
2023-04-27T15:46:56.623Z,23.40
2023-04-27T15:48:58.228Z,23.40
2023-04-27T15:50:59.972Z,23.30
2023-04-27T15:53:01.581Z,23.30
2023-04-27T15:55:04.582Z,23.30
2023-04-27T15:57:06.134Z,23.40
2023-04-27T15:59:08.038Z,23.40
2023-04-27T16:01:09.727Z,23.40
2023-04-27T16:03:13.171Z,23.40
2023-04-27T16:05:14.810Z,23.50
2023-04-27T16:07:16.444Z,23.40
2023-04-27T16:09:18.259Z,23.40
2023-04-27T16:11:19.999Z,23.40
2023-04-27T16:13:22.823Z,23.40
2023-04-27T16:15:24.613Z,23.40
2023-04-27T16:17:27.495Z,23.40
2023-04-27T16:19:29.024Z,23.50
2023-04-27T16:21:30.580Z,23.50
2023-04-27T16:23:32.516Z,23.50
2023-04-27T16:25:34.283Z,23.60
2023-04-27T16:27:36.811Z,23.60
2023-04-27T16:29:38.381Z,23.60
2023-04-27T16:31:40.957Z,23.60
2023-04-27T16:33:42.524Z,23.60
2023-04-27T16:35:44.090Z,23.60
2023-04-27T16:37:45.685Z,23.70
2023-04-27T16:39:47.216Z,23.70
2023-04-27T16:41:48.848Z,23.70
2023-04-27T16:43:50.933Z,23.70
2023-04-27T16:45:52.670Z,23.70
2023-04-27T16:47:55.360Z,23.70
2023-04-27T16:49:57.088Z,23.70
2023-04-27T16:51:58.661Z,23.70
2023-04-27T16:54:00.462Z,23.70
2023-04-27T16:56:02.333Z,23.70
2023-04-27T16:58:03.915Z,23.80
2023-04-27T17:00:12.001Z,23.80
2023-04-27T17:02:23.756Z,23.70
2023-04-27T17:04:26.462Z,23.70
2023-04-27T17:06:28.477Z,23.70
2023-04-27T17:08:30.746Z,23.70
2023-04-27T17:10:32.433Z,23.70
2023-04-27T17:12:35.001Z,23.80
2023-04-27T17:14:37.903Z,23.80
2023-04-27T17:16:39.449Z,23.70
2023-04-27T17:18:40.985Z,23.70
2023-04-27T17:20:42.536Z,23.70
2023-04-27T17:22:45.121Z,23.70
2023-04-27T17:24:46.703Z,23.60
2023-04-27T17:26:48.257Z,23.60
2023-04-27T17:28:50.596Z,23.60
2023-04-27T17:30:52.208Z,23.60
2023-04-27T17:32:53.908Z,23.60
2023-04-27T17:34:55.702Z,23.60
2023-04-27T17:36:57.225Z,23.60
2023-04-27T17:38:58.807Z,23.60
2023-04-27T17:41:00.424Z,23.50
2023-04-27T17:43:01.953Z,23.40
2023-04-27T17:45:03.670Z,23.30
2023-04-27T17:47:05.411Z,23.30
2023-04-27T17:49:06.992Z,23.30
2023-04-27T17:51:08.734Z,23.30
2023-04-27T17:53:10.384Z,23.40
2023-04-27T17:55:12.340Z,23.40
2023-04-27T17:57:13.916Z,23.40
2023-04-27T17:59:15.642Z,23.40
2023-04-27T18:01:17.459Z,23.40
2023-04-27T18:03:19.295Z,23.40
2023-04-27T18:05:20.985Z,23.40
2023-04-27T18:07:23.071Z,23.40
2023-04-27T18:09:26.203Z,23.40
2023-04-27T18:11:28.142Z,23.40
2023-04-27T18:13:31.803Z,23.40
2023-04-27T18:15:33.374Z,23.40
2023-04-27T18:17:34.949Z,23.40
2023-04-27T18:19:36.513Z,23.30
2023-04-27T18:21:38.134Z,23.40
2023-04-27T18:23:41.230Z,23.30
2023-04-27T18:25:42.797Z,23.30
2023-04-27T18:27:45.159Z,23.30
2023-04-27T18:29:46.767Z,23.30
2023-04-27T18:31:49.225Z,23.30
2023-04-27T18:33:51.209Z,23.30
2023-04-27T18:35:52.744Z,23.40
2023-04-27T18:37:54.303Z,23.30
2023-04-27T18:39:55.999Z,23.30
2023-04-27T18:41:57.628Z,23.30
2023-04-27T18:44:05.743Z,23.30
2023-04-27T18:46:07.489Z,23.30
2023-04-27T18:48:09.366Z,23.30
2023-04-27T18:50:13.191Z,23.30
2023-04-27T18:52:14.774Z,23.30
2023-04-27T18:54:16.385Z,23.30
2023-04-27T18:56:17.957Z,23.30
2023-04-27T18:58:19.606Z,23.30
2023-04-27T19:00:21.311Z,23.30
2023-04-27T19:02:25.076Z,23.30
2023-04-27T19:04:26.827Z,23.30
2023-04-27T19:06:28.420Z,23.30
2023-04-27T19:08:30.009Z,23.30
2023-04-27T19:10:31.789Z,23.30
2023-04-27T19:12:33.477Z,23.20
2023-04-27T19:14:35.076Z,23.30
2023-04-27T19:16:37.887Z,23.30
2023-04-27T19:18:40.600Z,23.30
2023-04-27T19:20:42.244Z,23.30
2023-04-27T19:22:43.882Z,23.30
2023-04-27T19:24:45.514Z,23.30
2023-04-27T19:26:47.331Z,23.20
2023-04-27T19:28:49.022Z,23.20
2023-04-27T19:30:51.231Z,23.30
2023-04-27T19:32:52.977Z,23.20
2023-04-27T19:34:56.059Z,23.20
2023-04-27T19:36:57.644Z,23.20
2023-04-27T19:38:59.250Z,23.20
2023-04-27T19:41:01.011Z,23.20
2023-04-27T19:43:03.636Z,23.20
2023-04-27T19:45:05.769Z,23.20
2023-04-27T19:47:07.572Z,23.20
2023-04-27T19:49:09.173Z,23.20
2023-04-27T19:51:10.850Z,23.20
2023-04-27T19:53:12.522Z,23.20
2023-04-27T19:55:14.155Z,23.20
2023-04-27T19:57:16.552Z,23.20
2023-04-27T19:59:18.450Z,23.20
2023-04-27T20:01:21.830Z,23.20
2023-04-27T20:03:23.599Z,23.20
2023-04-27T20:05:25.737Z,23.20
2023-04-27T20:07:27.389Z,23.20
2023-04-27T20:09:28.962Z,23.20
2023-04-27T20:11:30.563Z,23.20
2023-04-27T20:13:32.091Z,23.20
2023-04-27T20:15:33.768Z,23.20
2023-04-27T20:17:35.475Z,23.20
2023-04-27T20:19:37.052Z,23.20
2023-04-27T20:21:38.554Z,23.20
2023-04-27T20:23:40.219Z,23.20
2023-04-27T20:25:42.073Z,23.20
2023-04-27T20:27:43.694Z,23.20
2023-04-27T20:29:47.117Z,23.20
2023-04-27T20:31:48.902Z,23.20
2023-04-27T20:33:50.496Z,23.20
2023-04-27T20:35:55.548Z,23.20
2023-04-27T20:37:58.596Z,23.20
2023-04-27T20:40:00.813Z,23.20
2023-04-27T20:42:02.360Z,23.20
2023-04-27T20:44:03.931Z,23.20
2023-04-27T20:46:10.065Z,23.20
2023-04-27T20:48:12.066Z,23.20
2023-04-27T20:50:13.900Z,23.20
2023-04-27T20:52:15.685Z,23.20
2023-04-27T20:54:17.333Z,23.20
2023-04-27T20:56:20.093Z,23.20
2023-04-27T20:58:21.665Z,23.20
2023-04-27T21:00:23.241Z,23.20
2023-04-27T21:02:24.821Z,23.10
2023-04-27T21:04:26.505Z,23.10
2023-04-27T21:06:28.171Z,23.10
2023-04-27T21:08:29.855Z,23.10
2023-04-27T21:10:31.476Z,23.10
2023-04-27T21:12:36.250Z,23.10
2023-04-27T21:14:37.816Z,23.10
2023-04-27T21:16:39.369Z,23.10
2023-04-27T21:18:41.008Z,23.10
2023-04-27T21:20:42.640Z,23.10
2023-04-27T21:22:44.211Z,23.10
2023-04-27T21:24:46.085Z,23.10
2023-04-27T21:26:47.649Z,23.10
2023-04-27T21:28:49.173Z,23.10
2023-04-27T21:30:50.842Z,23.10
2023-04-27T21:32:52.468Z,23.10
2023-04-27T21:34:54.089Z,23.10
2023-04-27T21:36:55.870Z,23.10
2023-04-27T21:38:57.422Z,23.10
2023-04-27T21:40:59.035Z,23.10
2023-04-27T21:43:01.128Z,23.10
2023-04-27T21:45:04.368Z,23.10
2023-04-27T21:47:05.956Z,23.10
2023-04-27T21:49:07.477Z,23.10
2023-04-27T21:51:09.068Z,23.10
2023-04-27T21:53:10.894Z,23.10
2023-04-27T21:55:12.456Z,23.10
2023-04-27T21:57:14.069Z,23.00
2023-04-27T21:59:15.631Z,23.00
2023-04-27T22:01:17.313Z,23.00
2023-04-27T22:03:18.974Z,23.00
2023-04-27T22:05:21.024Z,23.00
2023-04-27T22:07:24.603Z,23.00
2023-04-27T22:09:26.237Z,23.00
2023-04-27T22:11:27.790Z,23.00
2023-04-27T22:13:29.338Z,23.00
2023-04-27T22:15:30.921Z,23.00
2023-04-27T22:17:32.882Z,23.00
2023-04-27T22:19:34.676Z,23.00
2023-04-27T22:21:36.226Z,23.00
2023-04-27T22:23:37.756Z,22.90
2023-04-27T22:25:42.416Z,23.00
2023-04-27T22:27:45.275Z,23.00
2023-04-27T22:29:47.214Z,23.00
2023-04-27T22:31:48.880Z,23.00
2023-04-27T22:33:50.484Z,23.00
2023-04-27T22:35:52.095Z,22.90
2023-04-27T22:37:54.534Z,23.00
2023-04-27T22:39:56.098Z,23.00
2023-04-27T22:41:57.641Z,22.90
2023-04-27T22:43:59.279Z,22.90
2023-04-27T22:46:00.923Z,22.90
2023-04-27T22:48:02.641Z,22.90
2023-04-27T22:50:04.776Z,22.90
2023-04-27T22:52:07.902Z,22.90
2023-04-27T22:54:09.451Z,22.90
2023-04-27T22:56:11.048Z,22.90
2023-04-27T22:58:12.560Z,22.90
2023-04-27T23:00:14.330Z,22.90
2023-04-27T23:02:16.300Z,22.90
2023-04-27T23:04:22.212Z,22.90
2023-04-27T23:06:23.944Z,22.90
2023-04-27T23:08:25.561Z,22.90
2023-04-27T23:10:27.093Z,22.90
2023-04-27T23:12:31.928Z,22.90
2023-04-27T23:14:33.506Z,22.90
2023-04-27T23:16:35.755Z,22.90
2023-04-27T23:18:37.401Z,22.90
2023-04-27T23:20:38.982Z,22.90
2023-04-27T23:22:43.506Z,22.90
2023-04-27T23:24:45.069Z,22.90
2023-04-27T23:26:46.643Z,22.90
2023-04-27T23:28:49.632Z,22.90
2023-04-27T23:30:54.753Z,22.90
2023-04-27T23:32:56.806Z,22.90
2023-04-27T23:34:59.008Z,22.90
2023-04-27T23:37:00.767Z,22.90
2023-04-27T23:39:02.285Z,22.90
2023-04-27T23:41:03.932Z,22.90
2023-04-27T23:43:05.898Z,22.90
2023-04-27T23:45:07.763Z,22.90
2023-04-27T23:47:09.598Z,22.90
2023-04-27T23:49:11.191Z,22.90
2023-04-27T23:51:12.709Z,22.80
2023-04-27T23:53:14.311Z,22.90
2023-04-27T23:55:16.678Z,22.90
2023-04-27T23:57:18.246Z,22.90
2023-04-27T23:59:19.815Z,22.90
